^^
TXWeather Station Historical Data
Daily Summary for September 21, 2021 Units:  Both    English   Metric
Daily Weekly Monthly Yearly Custom
  High: Low: Average:
Temperature: 96.0 °F /  35.6 °C 77.0 °F /  25 °C 85.2 °F /  29.6 °C
Dew Point: 80.0 °F /  26.7 °C 68.0 °F /  20 °C 75.1 °F /  23.9 °C
Humidity: 93% 49% 74%
Wind Speed: 18mph /  29km/h - 5.2mph /  8.4km/h
Wind Gust: 18mph /  29km/h - -
Wind- - SSW
Pressure: 30.2 in /  1022.6 hPa 30.0 in /  1015.8 hPa -
Precipitation: 0.000 in /  0 mm    
Historical Graphs
 
 
Tabular Data for September 21, 2021
Time Temperature Dew Point Pressure Wind Wind Speed Wind Gust Humidity Rainfall Rate (Hourly) solar
00:04 81.0 °F /  27.2 °C 76.0 °F /  24.4 °C 30.0in /  1015.8hPa SSE 4mph /  6.4km/h 5mph /  8km/h 84% 0.000in /  0mm 0.00 W/m2
00:09 81.0 °F /  27.2 °C 76.0 °F /  24.4 °C 30.0in /  1015.8hPa SSE 6mph /  9.7km/h 6mph /  9.7km/h 84% 0.000in /  0mm 0.00 W/m2
00:14 81.0 °F /  27.2 °C 76.0 °F /  24.4 °C 30.0in /  1015.8hPa SSE 5mph /  8km/h 6mph /  9.7km/h 84% 0.000in /  0mm 0.00 W/m2
00:19 81.0 °F /  27.2 °C 76.0 °F /  24.4 °C 30.0in /  1015.8hPa South 6mph /  9.7km/h 6mph /  9.7km/h 84% 0.000in /  0mm 0.00 W/m2
00:24 81.0 °F /  27.2 °C 76.0 °F /  24.4 °C 30.0in /  1015.8hPa South 5mph /  8km/h 9mph /  14.5km/h 84% 0.000in /  0mm 0.00 W/m2
00:29 81.0 °F /  27.2 °C 76.0 °F /  24.4 °C 30.0in /  1015.8hPa SSE 5mph /  8km/h 9mph /  14.5km/h 85% 0.000in /  0mm 0.00 W/m2
00:34 81.0 °F /  27.2 °C 76.0 °F /  24.4 °C 30.0in /  1015.8hPa SSE 4mph /  6.4km/h 5mph /  8km/h 85% 0.000in /  0mm 0.00 W/m2
00:39 81.0 °F /  27.2 °C 76.0 °F /  24.4 °C 30.0in /  1015.8hPa SSE 7mph /  11.3km/h 7mph /  11.3km/h 85% 0.000in /  0mm 0.00 W/m2
00:44 81.0 °F /  27.2 °C 76.0 °F /  24.4 °C 30.0in /  1015.8hPa SSE 7mph /  11.3km/h 7mph /  11.3km/h 85% 0.000in /  0mm 0.00 W/m2
00:49 81.0 °F /  27.2 °C 76.0 °F /  24.4 °C 30.0in /  1015.8hPa SSE 6mph /  9.7km/h 6mph /  9.7km/h 85% 0.000in /  0mm 0.00 W/m2
00:54 81.0 °F /  27.2 °C 76.0 °F /  24.4 °C 30.0in /  1015.8hPa SSE 6mph /  9.7km/h 6mph /  9.7km/h 85% 0.000in /  0mm 0.00 W/m2
00:59 80.0 °F /  26.7 °C 76.0 °F /  24.4 °C 30.0in /  1015.8hPa SSE 6mph /  9.7km/h 6mph /  9.7km/h 85% 0.000in /  0mm 0.00 W/m2
01:04 80.0 °F /  26.7 °C 76.0 °F /  24.4 °C 30.0in /  1015.8hPa SSE 6mph /  9.7km/h 7mph /  11.3km/h 86% 0.000in /  0mm 0.00 W/m2
01:09 80.0 °F /  26.7 °C 76.0 °F /  24.4 °C 30.0in /  1015.8hPa SSE 8mph /  12.9km/h 9mph /  14.5km/h 86% 0.000in /  0mm 0.00 W/m2
01:14 80.0 °F /  26.7 °C 76.0 °F /  24.4 °C 30.0in /  1015.8hPa South 6mph /  9.7km/h 9mph /  14.5km/h 86% 0.000in /  0mm 0.00 W/m2
01:19 80.0 °F /  26.7 °C 76.0 °F /  24.4 °C 30.0in /  1015.8hPa SSE 5mph /  8km/h 6mph /  9.7km/h 86% 0.000in /  0mm 0.00 W/m2
01:24 80.0 °F /  26.7 °C 76.0 °F /  24.4 °C 30.0in /  1015.8hPa South 4mph /  6.4km/h 4mph /  6.4km/h 86% 0.000in /  0mm 0.00 W/m2
01:29 80.0 °F /  26.7 °C 76.0 °F /  24.4 °C 30.0in /  1015.8hPa SSE 5mph /  8km/h 6mph /  9.7km/h 86% 0.000in /  0mm 0.00 W/m2
01:34 80.0 °F /  26.7 °C 76.0 °F /  24.4 °C 30.0in /  1015.8hPa SSE 6mph /  9.7km/h 6mph /  9.7km/h 86% 0.000in /  0mm 0.00 W/m2
01:39 80.0 °F /  26.7 °C 76.0 °F /  24.4 °C 30.0in /  1015.8hPa SSE 5mph /  8km/h 5mph /  8km/h 86% 0.000in /  0mm 0.00 W/m2
01:44 80.0 °F /  26.7 °C 76.0 °F /  24.4 °C 30.0in /  1015.8hPa SSE 5mph /  8km/h 5mph /  8km/h 87% 0.000in /  0mm 0.00 W/m2
01:49 80.0 °F /  26.7 °C 76.0 °F /  24.4 °C 30.0in /  1015.8hPa SSE 5mph /  8km/h 6mph /  9.7km/h 87% 0.000in /  0mm 0.00 W/m2
01:54 80.0 °F /  26.7 °C 76.0 °F /  24.4 °C 30.0in /  1015.8hPa SSE 4mph /  6.4km/h 5mph /  8km/h 87% 0.000in /  0mm 0.00 W/m2
01:59 80.0 °F /  26.7 °C 76.0 °F /  24.4 °C 30.0in /  1015.8hPa SSE 6mph /  9.7km/h 6mph /  9.7km/h 87% 0.000in /  0mm 0.00 W/m2
02:04 80.0 °F /  26.7 °C 76.0 °F /  24.4 °C 30.0in /  1015.8hPa SSE 3mph /  4.8km/h 5mph /  8km/h 87% 0.000in /  0mm 0.00 W/m2
02:09 80.0 °F /  26.7 °C 76.0 °F /  24.4 °C 30.0in /  1015.8hPa SSE 3mph /  4.8km/h 3mph /  4.8km/h 87% 0.000in /  0mm 0.00 W/m2
02:14 80.0 °F /  26.7 °C 76.0 °F /  24.4 °C 30.0in /  1015.8hPa SSE 3mph /  4.8km/h 4mph /  6.4km/h 88% 0.000in /  0mm 0.00 W/m2
02:19 80.0 °F /  26.7 °C 76.0 °F /  24.4 °C 30.0in /  1015.8hPa South 5mph /  8km/h 6mph /  9.7km/h 88% 0.000in /  0mm 0.00 W/m2
02:24 80.0 °F /  26.7 °C 76.0 °F /  24.4 °C 30.0in /  1015.8hPa South 4mph /  6.4km/h 4mph /  6.4km/h 88% 0.000in /  0mm 0.00 W/m2
02:29 80.0 °F /  26.7 °C 76.0 °F /  24.4 °C 30.0in /  1015.8hPa South 5mph /  8km/h 5mph /  8km/h 88% 0.000in /  0mm 0.00 W/m2
02:34 80.0 °F /  26.7 °C 76.0 °F /  24.4 °C 30.0in /  1015.8hPa South 4mph /  6.4km/h 4mph /  6.4km/h 88% 0.000in /  0mm 0.00 W/m2
02:39 79.0 °F /  26.1 °C 76.0 °F /  24.4 °C 30.0in /  1015.8hPa SSE 4mph /  6.4km/h 4mph /  6.4km/h 88% 0.000in /  0mm 0.00 W/m2
02:44 79.0 °F /  26.1 °C 76.0 °F /  24.4 °C 30.0in /  1015.8hPa SSE 4mph /  6.4km/h 4mph /  6.4km/h 88% 0.000in /  0mm 0.00 W/m2
02:49 79.0 °F /  26.1 °C 76.0 °F /  24.4 °C 30.0in /  1015.8hPa SSE 2mph /  3.2km/h 2mph /  3.2km/h 88% 0.000in /  0mm 0.00 W/m2
02:54 79.0 °F /  26.1 °C 76.0 °F /  24.4 °C 30.0in /  1015.8hPa SSE 3mph /  4.8km/h 4mph /  6.4km/h 89% 0.000in /  0mm 0.00 W/m2
02:59 79.0 °F /  26.1 °C 76.0 °F /  24.4 °C 30.0in /  1015.8hPa SSE 4mph /  6.4km/h 4mph /  6.4km/h 89% 0.000in /  0mm 0.00 W/m2
03:04 79.0 °F /  26.1 °C 76.0 °F /  24.4 °C 30.0in /  1015.8hPa SSE 2mph /  3.2km/h 2mph /  3.2km/h 89% 0.000in /  0mm 0.00 W/m2
03:09 79.0 °F /  26.1 °C 76.0 °F /  24.4 °C 30.0in /  1015.8hPa SSE 2mph /  3.2km/h 2mph /  3.2km/h 89% 0.000in /  0mm 0.00 W/m2
03:14 79.0 °F /  26.1 °C 75.0 °F /  23.9 °C 30.0in /  1015.8hPa SSE 2mph /  3.2km/h 2mph /  3.2km/h 89% 0.000in /  0mm 0.00 W/m2
03:19 79.0 °F /  26.1 °C 75.0 °F /  23.9 °C 30.0in /  1015.8hPa SSE 4mph /  6.4km/h 4mph /  6.4km/h 89% 0.000in /  0mm 0.00 W/m2
03:24 79.0 °F /  26.1 °C 75.0 °F /  23.9 °C 30.0in /  1015.8hPa SSE 2mph /  3.2km/h 4mph /  6.4km/h 89% 0.000in /  0mm 0.00 W/m2
03:29 79.0 °F /  26.1 °C 75.0 °F /  23.9 °C 30.0in /  1015.8hPa SSE 3mph /  4.8km/h 3mph /  4.8km/h 89% 0.000in /  0mm 0.00 W/m2
03:34 79.0 °F /  26.1 °C 76.0 °F /  24.4 °C 30.0in /  1015.8hPa SSE 2mph /  3.2km/h 3mph /  4.8km/h 90% 0.000in /  0mm 0.00 W/m2
03:37 79.0 °F /  26.1 °C 76.0 °F /  24.4 °C 30.0in /  1015.8hPa SSE 1mph /  1.6km/h 2mph /  3.2km/h 90% 0.000in /  0mm 0.00 W/m2
03:44 79.0 °F /  26.1 °C 75.0 °F /  23.9 °C 30.0in /  1015.8hPa SSE 4mph /  6.4km/h 4mph /  6.4km/h 90% 0.000in /  0mm 0.00 W/m2
03:49 79.0 °F /  26.1 °C 75.0 °F /  23.9 °C 30.0in /  1015.8hPa SSE 4mph /  6.4km/h 4mph /  6.4km/h 90% 0.000in /  0mm 0.00 W/m2
03:54 79.0 °F /  26.1 °C 75.0 °F /  23.9 °C 30.0in /  1015.8hPa SSE 2mph /  3.2km/h 4mph /  6.4km/h 90% 0.000in /  0mm 0.00 W/m2
03:59 79.0 °F /  26.1 °C 75.0 °F /  23.9 °C 30.0in /  1015.8hPa SSE 2mph /  3.2km/h 3mph /  4.8km/h 90% 0.000in /  0mm 0.00 W/m2
04:04 79.0 °F /  26.1 °C 75.0 °F /  23.9 °C 30.0in /  1015.8hPa SSE 4mph /  6.4km/h 5mph /  8km/h 90% 0.000in /  0mm 0.00 W/m2
04:09 79.0 °F /  26.1 °C 75.0 °F /  23.9 °C 30.0in /  1015.8hPa SSE 2mph /  3.2km/h 2mph /  3.2km/h 90% 0.000in /  0mm 0.00 W/m2
04:14 78.0 °F /  25.6 °C 75.0 °F /  23.9 °C 30.0in /  1015.8hPa SSE 4mph /  6.4km/h 4mph /  6.4km/h 90% 0.000in /  0mm 0.00 W/m2
04:19 78.0 °F /  25.6 °C 75.0 °F /  23.9 °C 30.0in /  1015.8hPa SSE 4mph /  6.4km/h 5mph /  8km/h 90% 0.000in /  0mm 0.00 W/m2
04:24 78.0 °F /  25.6 °C 75.0 °F /  23.9 °C 30.0in /  1015.8hPa SSE 2mph /  3.2km/h 4mph /  6.4km/h 90% 0.000in /  0mm 0.00 W/m2
04:29 78.0 °F /  25.6 °C 76.0 °F /  24.4 °C 30.0in /  1015.8hPa SSE 2mph /  3.2km/h 2mph /  3.2km/h 91% 0.000in /  0mm 0.00 W/m2
04:34 78.0 °F /  25.6 °C 76.0 °F /  24.4 °C 30.0in /  1015.8hPa SSE 1mph /  1.6km/h 1mph /  1.6km/h 91% 0.000in /  0mm 0.00 W/m2
04:39 78.0 °F /  25.6 °C 75.0 °F /  23.9 °C 30.0in /  1015.8hPa SSE 2mph /  3.2km/h 2mph /  3.2km/h 91% 0.000in /  0mm 0.00 W/m2
04:44 78.0 °F /  25.6 °C 75.0 °F /  23.9 °C 30.0in /  1015.8hPa Calm   1mph /  1.6km/h 91% 0.000in /  0mm 0.00 W/m2
04:49 78.0 °F /  25.6 °C 75.0 °F /  23.9 °C 30.0in /  1015.8hPa SSE 2mph /  3.2km/h 2mph /  3.2km/h 91% 0.000in /  0mm 0.00 W/m2
04:54 78.0 °F /  25.6 °C 75.0 °F /  23.9 °C 30.0in /  1015.8hPa Calm   1mph /  1.6km/h 91% 0.000in /  0mm 0.00 W/m2
04:59 78.0 °F /  25.6 °C 75.0 °F /  23.9 °C 30.0in /  1015.8hPa SSE 1mph /  1.6km/h 1mph /  1.6km/h 91% 0.000in /  0mm 0.00 W/m2
05:04 78.0 °F /  25.6 °C 75.0 °F /  23.9 °C 30.0in /  1015.8hPa SSE 1mph /  1.6km/h 1mph /  1.6km/h 91% 0.000in /  0mm 0.00 W/m2
05:09 78.0 °F /  25.6 °C 75.0 °F /  23.9 °C 30.0in /  1015.8hPa Calm   1mph /  1.6km/h 91% 0.000in /  0mm 0.00 W/m2
05:14 77.0 °F /  25 °C 75.0 °F /  23.9 °C 30.0in /  1015.8hPa Calm     91% 0.000in /  0mm 0.00 W/m2
05:19 77.0 °F /  25 °C 75.0 °F /  23.9 °C 30.0in /  1015.8hPa SSE 1mph /  1.6km/h 1mph /  1.6km/h 91% 0.000in /  0mm 0.00 W/m2
05:24 77.0 °F /  25 °C 75.0 °F /  23.9 °C 30.0in /  1015.8hPa SSE 1mph /  1.6km/h 1mph /  1.6km/h 92% 0.000in /  0mm 0.00 W/m2
05:29 77.0 °F /  25 °C 75.0 °F /  23.9 °C 30.0in /  1015.8hPa SSE 1mph /  1.6km/h 1mph /  1.6km/h 92% 0.000in /  0mm 0.00 W/m2
05:34 77.0 °F /  25 °C 75.0 °F /  23.9 °C 30.0in /  1015.8hPa SSE 1mph /  1.6km/h 1mph /  1.6km/h 92% 0.000in /  0mm 0.00 W/m2
05:39 77.0 °F /  25 °C 75.0 °F /  23.9 °C 30.0in /  1015.8hPa SSE 1mph /  1.6km/h 1mph /  1.6km/h 92% 0.000in /  0mm 0.00 W/m2
05:44 77.0 °F /  25 °C 75.0 °F /  23.9 °C 30.0in /  1015.8hPa SSE 1mph /  1.6km/h 1mph /  1.6km/h 92% 0.000in /  0mm 0.00 W/m2
05:49 78.0 °F /  25.6 °C 75.0 °F /  23.9 °C 30.0in /  1015.8hPa Calm   1mph /  1.6km/h 92% 0.000in /  0mm 0.00 W/m2
05:54 78.0 °F /  25.6 °C 75.0 °F /  23.9 °C 30.0in /  1015.8hPa SSE 1mph /  1.6km/h 1mph /  1.6km/h 92% 0.000in /  0mm 0.00 W/m2
05:59 78.0 °F /  25.6 °C 75.0 °F /  23.9 °C 30.0in /  1015.8hPa Calm     92% 0.000in /  0mm 0.00 W/m2
06:04 78.0 °F /  25.6 °C 75.0 °F /  23.9 °C 30.0in /  1015.8hPa Calm   1mph /  1.6km/h 92% 0.000in /  0mm 0.00 W/m2
06:09 78.0 °F /  25.6 °C 75.0 °F /  23.9 °C 30.0in /  1015.8hPa SSE 1mph /  1.6km/h 1mph /  1.6km/h 92% 0.000in /  0mm 0.00 W/m2
06:14 78.0 °F /  25.6 °C 75.0 °F /  23.9 °C 30.0in /  1015.8hPa Calm   1mph /  1.6km/h 92% 0.000in /  0mm 0.00 W/m2
06:19 78.0 °F /  25.6 °C 75.0 °F /  23.9 °C 30.0in /  1015.8hPa SSE 1mph /  1.6km/h 1mph /  1.6km/h 92% 0.000in /  0mm 0.00 W/m2
06:24 78.0 °F /  25.6 °C 75.0 °F /  23.9 °C 30.0in /  1015.8hPa SSE 1mph /  1.6km/h 1mph /  1.6km/h 92% 0.000in /  0mm 0.00 W/m2
06:29 78.0 °F /  25.6 °C 75.0 °F /  23.9 °C 30.0in /  1015.8hPa Calm     92% 0.000in /  0mm 0.00 W/m2
06:34 77.0 °F /  25 °C 75.0 °F /  23.9 °C 30.0in /  1015.8hPa Calm     92% 0.000in /  0mm 0.00 W/m2
06:39 77.0 °F /  25 °C 75.0 °F /  23.9 °C 30.0in /  1015.8hPa Calm     92% 0.000in /  0mm 0.00 W/m2
06:44 77.0 °F /  25 °C 75.0 °F /  23.9 °C 30.0in /  1015.8hPa SSE 1mph /  1.6km/h 1mph /  1.6km/h 92% 0.000in /  0mm 0.00 W/m2
06:49 77.0 °F /  25 °C 75.0 °F /  23.9 °C 30.0in /  1015.8hPa SSE 1mph /  1.6km/h 1mph /  1.6km/h 92% 0.000in /  0mm 0.00 W/m2
06:54 77.0 °F /  25 °C 74.0 °F /  23.3 °C 30.0in /  1015.8hPa SSE 1mph /  1.6km/h 2mph /  3.2km/h 92% 0.000in /  0mm 0.00 W/m2
06:59 77.0 °F /  25 °C 74.0 °F /  23.3 °C 30.0in /  1015.8hPa Calm   1mph /  1.6km/h 92% 0.000in /  0mm 0.00 W/m2
07:04 77.0 °F /  25 °C 74.0 °F /  23.3 °C 30.0in /  1015.8hPa Calm     92% 0.000in /  0mm 0.00 W/m2
07:09 77.0 °F /  25 °C 75.0 °F /  23.9 °C 30.0in /  1015.8hPa Calm     93% 0.000in /  0mm 0.00 W/m2
07:14 77.0 °F /  25 °C 75.0 °F /  23.9 °C 30.0in /  1015.8hPa Calm     93% 0.000in /  0mm 0.00 W/m2
07:19 77.0 °F /  25 °C 75.0 °F /  23.9 °C 30.0in /  1015.8hPa SSE 1mph /  1.6km/h 1mph /  1.6km/h 93% 0.000in /  0mm 5.00 W/m2
07:24 77.0 °F /  25 °C 75.0 °F /  23.9 °C 30.0in /  1015.8hPa SSE 1mph /  1.6km/h 1mph /  1.6km/h 93% 0.000in /  0mm 9.00 W/m2
07:29 77.0 °F /  25 °C 75.0 °F /  23.9 °C 30.0in /  1015.8hPa SSE 1mph /  1.6km/h 2mph /  3.2km/h 93% 0.000in /  0mm 12.00 W/m2
07:34 77.0 °F /  25 °C 75.0 °F /  23.9 °C 30.0in /  1015.8hPa Calm   1mph /  1.6km/h 93% 0.000in /  0mm 18.00 W/m2
07:39 78.0 °F /  25.6 °C 75.0 °F /  23.9 °C 30.0in /  1015.8hPa Calm   1mph /  1.6km/h 93% 0.000in /  0mm 21.00 W/m2
07:44 78.0 °F /  25.6 °C 75.0 °F /  23.9 °C 30.0in /  1015.8hPa SSE 2mph /  3.2km/h 2mph /  3.2km/h 93% 0.000in /  0mm 25.00 W/m2
07:49 78.0 °F /  25.6 °C 76.0 °F /  24.4 °C 30.0in /  1015.8hPa SSE 1mph /  1.6km/h 2mph /  3.2km/h 93% 0.000in /  0mm 30.00 W/m2
07:54 78.0 °F /  25.6 °C 76.0 °F /  24.4 °C 30.0in /  1015.8hPa SSE 1mph /  1.6km/h 1mph /  1.6km/h 93% 0.000in /  0mm 35.00 W/m2
07:59 78.0 °F /  25.6 °C 76.0 °F /  24.4 °C 30.0in /  1015.8hPa SSE 1mph /  1.6km/h 1mph /  1.6km/h 93% 0.000in /  0mm 49.00 W/m2
08:04 79.0 °F /  26.1 °C 77.0 °F /  25 °C 30.0in /  1015.8hPa SSE 1mph /  1.6km/h 1mph /  1.6km/h 93% 0.000in /  0mm 53.00 W/m2
08:09 79.0 °F /  26.1 °C 77.0 °F /  25 °C 30.0in /  1015.8hPa SSE 2mph /  3.2km/h 4mph /  6.4km/h 93% 0.000in /  0mm 56.00 W/m2
08:14 79.0 °F /  26.1 °C 77.0 °F /  25 °C 30.0in /  1015.8hPa SSE 4mph /  6.4km/h 4mph /  6.4km/h 93% 0.000in /  0mm 72.00 W/m2
08:19 80.0 °F /  26.7 °C 77.0 °F /  25 °C 30.0in /  1015.8hPa SSE 2mph /  3.2km/h 3mph /  4.8km/h 92% 0.000in /  0mm 111.00 W/m2
08:24 80.0 °F /  26.7 °C 77.0 °F /  25 °C 30.1in /  1019.2hPa SSE 2mph /  3.2km/h 2mph /  3.2km/h 92% 0.000in /  0mm 130.00 W/m2
08:29 80.0 °F /  26.7 °C 78.0 °F /  25.6 °C 30.1in /  1019.2hPa SE 3mph /  4.8km/h 3mph /  4.8km/h 92% 0.000in /  0mm 155.00 W/m2
08:34 81.0 °F /  27.2 °C 78.0 °F /  25.6 °C 30.1in /  1019.2hPa SE 2mph /  3.2km/h 2mph /  3.2km/h 92% 0.000in /  0mm 174.00 W/m2
08:39 81.0 °F /  27.2 °C 78.0 °F /  25.6 °C 30.1in /  1019.2hPa SE 2mph /  3.2km/h 2mph /  3.2km/h 92% 0.000in /  0mm 185.00 W/m2
08:44 81.0 °F /  27.2 °C 78.0 °F /  25.6 °C 30.1in /  1019.2hPa SE 1mph /  1.6km/h 2mph /  3.2km/h 91% 0.000in /  0mm 139.00 W/m2
08:49 81.0 °F /  27.2 °C 78.0 °F /  25.6 °C 30.1in /  1019.2hPa SSE 3mph /  4.8km/h 3mph /  4.8km/h 91% 0.000in /  0mm 165.00 W/m2
08:54 81.0 °F /  27.2 °C 78.0 °F /  25.6 °C 30.1in /  1019.2hPa South 4mph /  6.4km/h 4mph /  6.4km/h 90% 0.000in /  0mm 165.00 W/m2
08:59 81.0 °F /  27.2 °C 78.0 °F /  25.6 °C 30.1in /  1019.2hPa South 2mph /  3.2km/h 3mph /  4.8km/h 90% 0.000in /  0mm 153.00 W/m2
09:04 81.0 °F /  27.2 °C 78.0 °F /  25.6 °C 30.1in /  1019.2hPa SSW 3mph /  4.8km/h 3mph /  4.8km/h 90% 0.000in /  0mm 114.00 W/m2
09:09 82.0 °F /  27.8 °C 79.0 °F /  26.1 °C 30.1in /  1019.2hPa SSW 3mph /  4.8km/h 3mph /  4.8km/h 90% 0.000in /  0mm 355.00 W/m2
09:14 83.0 °F /  28.3 °C 79.0 °F /  26.1 °C 30.1in /  1019.2hPa South 2mph /  3.2km/h 3mph /  4.8km/h 90% 0.000in /  0mm 348.00 W/m2
09:19 83.0 °F /  28.3 °C 80.0 °F /  26.7 °C 30.1in /  1019.2hPa SSW 2mph /  3.2km/h 3mph /  4.8km/h 90% 0.000in /  0mm 346.00 W/m2
09:24 83.0 °F /  28.3 °C 79.0 °F /  26.1 °C 30.1in /  1019.2hPa SSW 4mph /  6.4km/h 4mph /  6.4km/h 89% 0.000in /  0mm 227.00 W/m2
09:29 83.0 °F /  28.3 °C 79.0 °F /  26.1 °C 30.1in /  1019.2hPa SSW 4mph /  6.4km/h 4mph /  6.4km/h 88% 0.000in /  0mm 459.00 W/m2
09:34 84.0 °F /  28.9 °C 80.0 °F /  26.7 °C 30.1in /  1019.2hPa South 5mph /  8km/h 5mph /  8km/h 88% 0.000in /  0mm 459.00 W/m2
09:39 84.0 °F /  28.9 °C 79.0 °F /  26.1 °C 30.1in /  1019.2hPa SW 8mph /  12.9km/h 8mph /  12.9km/h 86% 0.000in /  0mm 149.00 W/m2
09:44 83.0 °F /  28.3 °C 78.0 °F /  25.6 °C 30.1in /  1019.2hPa SW 5mph /  8km/h 8mph /  12.9km/h 85% 0.000in /  0mm 104.00 W/m2
09:49 83.0 °F /  28.3 °C 78.0 °F /  25.6 °C 30.1in /  1019.2hPa SW 6mph /  9.7km/h 7mph /  11.3km/h 85% 0.000in /  0mm 188.00 W/m2
09:54 84.0 °F /  28.9 °C 80.0 °F /  26.7 °C 30.1in /  1019.2hPa SW 3mph /  4.8km/h 6mph /  9.7km/h 86% 0.000in /  0mm 610.00 W/m2
09:59 85.0 °F /  29.4 °C 80.0 °F /  26.7 °C 30.1in /  1019.2hPa South 4mph /  6.4km/h 7mph /  11.3km/h 86% 0.000in /  0mm 610.00 W/m2
10:04 85.0 °F /  29.4 °C 79.0 °F /  26.1 °C 30.1in /  1019.2hPa SSW 7mph /  11.3km/h 7mph /  11.3km/h 83% 0.000in /  0mm 278.00 W/m2
10:09 85.0 °F /  29.4 °C 78.0 °F /  25.6 °C 30.1in /  1019.2hPa WSW 8mph /  12.9km/h 9mph /  14.5km/h 81% 0.000in /  0mm 183.00 W/m2
10:14 84.0 °F /  28.9 °C 78.0 °F /  25.6 °C 30.1in /  1019.2hPa WSW 11mph /  17.7km/h 11mph /  17.7km/h 81% 0.000in /  0mm 169.00 W/m2
10:19 85.0 °F /  29.4 °C 78.0 °F /  25.6 °C 30.1in /  1019.2hPa WSW 5mph /  8km/h 6mph /  9.7km/h 82% 0.000in /  0mm 169.00 W/m2
10:24 86.0 °F /  30 °C 79.0 °F /  26.1 °C 30.1in /  1019.2hPa SSW 7mph /  11.3km/h 7mph /  11.3km/h 81% 0.000in /  0mm 617.00 W/m2
10:29 86.0 °F /  30 °C 80.0 °F /  26.7 °C 30.1in /  1019.2hPa SSW 6mph /  9.7km/h 7mph /  11.3km/h 81% 0.000in /  0mm 622.00 W/m2
10:34 87.0 °F /  30.6 °C 80.0 °F /  26.7 °C 30.1in /  1019.2hPa SSW 3mph /  4.8km/h 5mph /  8km/h 80% 0.000in /  0mm 666.00 W/m2
10:39 87.0 °F /  30.6 °C 79.0 °F /  26.1 °C 30.1in /  1019.2hPa SSW 3mph /  4.8km/h 4mph /  6.4km/h 79% 0.000in /  0mm 666.00 W/m2
10:44 87.0 °F /  30.6 °C 79.0 °F /  26.1 °C 30.1in /  1019.2hPa WSW 7mph /  11.3km/h 8mph /  12.9km/h 78% 0.000in /  0mm 705.00 W/m2
10:49 88.0 °F /  31.1 °C 80.0 °F /  26.7 °C 30.1in /  1019.2hPa SSW 7mph /  11.3km/h 8mph /  12.9km/h 76% 0.000in /  0mm 705.00 W/m2
10:54 88.0 °F /  31.1 °C 79.0 °F /  26.1 °C 30.1in /  1019.2hPa SW 7mph /  11.3km/h 8mph /  12.9km/h 75% 0.000in /  0mm 766.00 W/m2
10:59 89.0 °F /  31.7 °C 80.0 °F /  26.7 °C 30.1in /  1019.2hPa SSW 5mph /  8km/h 7mph /  11.3km/h 74% 0.000in /  0mm 819.00 W/m2
11:04 89.0 °F /  31.7 °C 80.0 °F /  26.7 °C 30.1in /  1019.2hPa SW 11mph /  17.7km/h 13mph /  20.9km/h 74% 0.000in /  0mm 844.00 W/m2
11:09 88.0 °F /  31.1 °C 79.0 °F /  26.1 °C 30.1in /  1019.2hPa WSW 9mph /  14.5km/h 13mph /  20.9km/h 75% 0.000in /  0mm 165.00 W/m2
11:14 87.0 °F /  30.6 °C 78.0 °F /  25.6 °C 30.1in /  1019.2hPa WSW 6mph /  9.7km/h 8mph /  12.9km/h 77% 0.000in /  0mm 744.00 W/m2
11:19 87.0 °F /  30.6 °C 79.0 °F /  26.1 °C 30.1in /  1019.2hPa WSW 7mph /  11.3km/h 8mph /  12.9km/h 76% 0.000in /  0mm 733.00 W/m2
11:24 88.0 °F /  31.1 °C 79.0 °F /  26.1 °C 30.1in /  1019.2hPa SW 8mph /  12.9km/h 8mph /  12.9km/h 76% 0.000in /  0mm 733.00 W/m2
11:29 88.0 °F /  31.1 °C 78.0 °F /  25.6 °C 30.1in /  1019.2hPa WSW 7mph /  11.3km/h 8mph /  12.9km/h 72% 0.000in /  0mm 737.00 W/m2
11:34 89.0 °F /  31.7 °C 79.0 °F /  26.1 °C 30.1in /  1019.2hPa SW 7mph /  11.3km/h 8mph /  12.9km/h 73% 0.000in /  0mm 763.00 W/m2
11:39 89.0 °F /  31.7 °C 78.0 °F /  25.6 °C 30.1in /  1019.2hPa SW 8mph /  12.9km/h 8mph /  12.9km/h 71% 0.000in /  0mm 810.00 W/m2
11:44 89.0 °F /  31.7 °C 78.0 °F /  25.6 °C 30.1in /  1019.2hPa SW 9mph /  14.5km/h 9mph /  14.5km/h 71% 0.000in /  0mm 833.00 W/m2
11:49 89.0 °F /  31.7 °C 79.0 °F /  26.1 °C 30.1in /  1019.2hPa SSW 5mph /  8km/h 5mph /  8km/h 72% 0.000in /  0mm 882.00 W/m2
11:54 90.0 °F /  32.2 °C 79.0 °F /  26.1 °C 30.1in /  1019.2hPa WSW 6mph /  9.7km/h 8mph /  12.9km/h 71% 0.000in /  0mm 912.00 W/m2
11:59 89.0 °F /  31.7 °C 78.0 °F /  25.6 °C 30.1in /  1019.2hPa West 7mph /  11.3km/h 8mph /  12.9km/h 72% 0.000in /  0mm 244.00 W/m2
12:04 89.0 °F /  31.7 °C 78.0 °F /  25.6 °C 30.1in /  1019.2hPa WSW 8mph /  12.9km/h 8mph /  12.9km/h 72% 0.000in /  0mm 896.00 W/m2
12:09 89.0 °F /  31.7 °C 78.0 °F /  25.6 °C 30.1in /  1019.2hPa West 7mph /  11.3km/h 8mph /  12.9km/h 72% 0.000in /  0mm 858.00 W/m2
12:14 89.0 °F /  31.7 °C 79.0 °F /  26.1 °C 30.1in /  1019.2hPa West 7mph /  11.3km/h 7mph /  11.3km/h 73% 0.000in /  0mm 911.00 W/m2
12:19 89.0 °F /  31.7 °C 79.0 °F /  26.1 °C 30.1in /  1019.2hPa West 5mph /  8km/h 5mph /  8km/h 72% 0.000in /  0mm 911.00 W/m2
12:24 89.0 °F /  31.7 °C 78.0 °F /  25.6 °C 30.1in /  1019.2hPa West 7mph /  11.3km/h 9mph /  14.5km/h 70% 0.000in /  0mm 837.00 W/m2
12:29 89.0 °F /  31.7 °C 78.0 °F /  25.6 °C 30.1in /  1019.2hPa West 8mph /  12.9km/h 8mph /  12.9km/h 69% 0.000in /  0mm 854.00 W/m2
12:34 90.0 °F /  32.2 °C 78.0 °F /  25.6 °C 30.1in /  1019.2hPa West 7mph /  11.3km/h 8mph /  12.9km/h 69% 0.000in /  0mm 854.00 W/m2
12:39 90.0 °F /  32.2 °C 78.0 °F /  25.6 °C 30.1in /  1019.2hPa West 7mph /  11.3km/h 8mph /  12.9km/h 68% 0.000in /  0mm 860.00 W/m2
12:44 91.0 °F /  32.8 °C 78.0 °F /  25.6 °C 30.1in /  1019.2hPa WSW 7mph /  11.3km/h 8mph /  12.9km/h 68% 0.000in /  0mm 942.00 W/m2
12:49 91.0 °F /  32.8 °C 77.0 °F /  25 °C 30.1in /  1019.2hPa WNW 4mph /  6.4km/h 7mph /  11.3km/h 65% 0.000in /  0mm 942.00 W/m2
12:54 91.0 °F /  32.8 °C 77.0 °F /  25 °C 30.1in /  1019.2hPa WSW 5mph /  8km/h 7mph /  11.3km/h 65% 0.000in /  0mm 220.00 W/m2
12:59 91.0 °F /  32.8 °C 77.0 °F /  25 °C 30.1in /  1019.2hPa WSW 5mph /  8km/h 7mph /  11.3km/h 65% 0.000in /  0mm 983.00 W/m2
13:04 91.0 °F /  32.8 °C 78.0 °F /  25.6 °C 30.1in /  1019.2hPa West 6mph /  9.7km/h 6mph /  9.7km/h 65% 0.000in /  0mm 983.00 W/m2
13:09 92.0 °F /  33.3 °C 77.0 °F /  25 °C 30.1in /  1019.2hPa NW 8mph /  12.9km/h 9mph /  14.5km/h 63% 0.000in /  0mm 962.00 W/m2
13:14 92.0 °F /  33.3 °C 78.0 °F /  25.6 °C 30.1in /  1019.2hPa West 8mph /  12.9km/h 9mph /  14.5km/h 63% 0.000in /  0mm 993.00 W/m2
13:19 92.0 °F /  33.3 °C 78.0 °F /  25.6 °C 30.1in /  1019.2hPa West 6mph /  9.7km/h 8mph /  12.9km/h 63% 0.000in /  0mm 972.00 W/m2
13:24 92.0 °F /  33.3 °C 78.0 °F /  25.6 °C 30.1in /  1019.2hPa NW 9mph /  14.5km/h 9mph /  14.5km/h 63% 0.000in /  0mm 874.00 W/m2
13:29 92.0 °F /  33.3 °C 78.0 °F /  25.6 °C 30.1in /  1019.2hPa West 8mph /  12.9km/h 9mph /  14.5km/h 63% 0.000in /  0mm 882.00 W/m2
13:34 92.0 °F /  33.3 °C 78.0 °F /  25.6 °C 30.1in /  1019.2hPa WSW 5mph /  8km/h 7mph /  11.3km/h 63% 0.000in /  0mm 870.00 W/m2
13:39 92.0 °F /  33.3 °C 76.0 °F /  24.4 °C 30.1in /  1019.2hPa West 7mph /  11.3km/h 7mph /  11.3km/h 60% 0.000in /  0mm 853.00 W/m2
13:44 92.0 °F /  33.3 °C 77.0 °F /  25 °C 30.1in /  1019.2hPa WSW 5mph /  8km/h 6mph /  9.7km/h 61% 0.000in /  0mm 851.00 W/m2
13:49 93.0 °F /  33.9 °C 78.0 °F /  25.6 °C 30.1in /  1019.2hPa WSW 8mph /  12.9km/h 9mph /  14.5km/h 62% 0.000in /  0mm 856.00 W/m2
13:54 93.0 °F /  33.9 °C 77.0 °F /  25 °C 30.1in /  1019.2hPa West 5mph /  8km/h 6mph /  9.7km/h 61% 0.000in /  0mm 856.00 W/m2
13:59 93.0 °F /  33.9 °C 76.0 °F /  24.4 °C 30.1in /  1019.2hPa West 8mph /  12.9km/h 8mph /  12.9km/h 59% 0.000in /  0mm 877.00 W/m2
14:04 93.0 °F /  33.9 °C 77.0 °F /  25 °C 30.1in /  1019.2hPa West 7mph /  11.3km/h 7mph /  11.3km/h 61% 0.000in /  0mm 856.00 W/m2
14:09 93.0 °F /  33.9 °C 77.0 °F /  25 °C 30.1in /  1019.2hPa West 7mph /  11.3km/h 7mph /  11.3km/h 61% 0.000in /  0mm 838.00 W/m2
14:14 93.0 °F /  33.9 °C 76.0 °F /  24.4 °C 30.1in /  1019.2hPa WSW 9mph /  14.5km/h 9mph /  14.5km/h 58% 0.000in /  0mm 846.00 W/m2
14:19 93.0 °F /  33.9 °C 76.0 °F /  24.4 °C 30.1in /  1019.2hPa West 7mph /  11.3km/h 7mph /  11.3km/h 58% 0.000in /  0mm 819.00 W/m2
14:24 93.0 °F /  33.9 °C 75.0 °F /  23.9 °C 30.1in /  1019.2hPa WNW 7mph /  11.3km/h 7mph /  11.3km/h 57% 0.000in /  0mm 817.00 W/m2
14:29 93.0 °F /  33.9 °C 76.0 °F /  24.4 °C 30.1in /  1019.2hPa WSW 6mph /  9.7km/h 7mph /  11.3km/h 57% 0.000in /  0mm 816.00 W/m2
14:34 94.0 °F /  34.4 °C 76.0 °F /  24.4 °C 30.1in /  1019.2hPa WSW 4mph /  6.4km/h 8mph /  12.9km/h 56% 0.000in /  0mm 795.00 W/m2
14:39 94.0 °F /  34.4 °C 75.0 °F /  23.9 °C 30.1in /  1019.2hPa WSW 7mph /  11.3km/h 8mph /  12.9km/h 55% 0.000in /  0mm 800.00 W/m2
14:44 94.0 °F /  34.4 °C 75.0 °F /  23.9 °C 30.1in /  1019.2hPa WSW 6mph /  9.7km/h 6mph /  9.7km/h 55% 0.000in /  0mm 793.00 W/m2
14:49 95.0 °F /  35 °C 74.0 °F /  23.3 °C 30.1in /  1019.2hPa WNW 5mph /  8km/h 5mph /  8km/h 52% 0.000in /  0mm 798.00 W/m2
14:54 95.0 °F /  35 °C 74.0 °F /  23.3 °C 30.1in /  1019.2hPa WSW 8mph /  12.9km/h 8mph /  12.9km/h 53% 0.000in /  0mm 809.00 W/m2
14:59 94.0 °F /  34.4 °C 76.0 °F /  24.4 °C 30.1in /  1019.2hPa SW 6mph /  9.7km/h 8mph /  12.9km/h 57% 0.000in /  0mm 810.00 W/m2
15:04 95.0 °F /  35 °C 77.0 °F /  25 °C 30.1in /  1019.2hPa SW 8mph /  12.9km/h 12mph /  19.3km/h 57% 0.000in /  0mm 807.00 W/m2
15:09 95.0 °F /  35 °C 75.0 °F /  23.9 °C 30.1in /  1019.2hPa WSW 7mph /  11.3km/h 7mph /  11.3km/h 53% 0.000in /  0mm 798.00 W/m2
15:14 95.0 °F /  35 °C 75.0 °F /  23.9 °C 30.1in /  1019.2hPa WSW 6mph /  9.7km/h 7mph /  11.3km/h 53% 0.000in /  0mm 840.00 W/m2
15:19 95.0 °F /  35 °C 76.0 °F /  24.4 °C 30.0in /  1015.8hPa WSW 4mph /  6.4km/h 7mph /  11.3km/h 55% 0.000in /  0mm 784.00 W/m2
15:24 95.0 °F /  35 °C 75.0 °F /  23.9 °C 30.0in /  1015.8hPa WNW 7mph /  11.3km/h 8mph /  12.9km/h 53% 0.000in /  0mm 835.00 W/m2
15:29 95.0 °F /  35 °C 75.0 °F /  23.9 °C 30.0in /  1015.8hPa West 9mph /  14.5km/h 9mph /  14.5km/h 53% 0.000in /  0mm 754.00 W/m2
15:34 95.0 °F /  35 °C 75.0 °F /  23.9 °C 30.0in /  1015.8hPa WSW 7mph /  11.3km/h 7mph /  11.3km/h 53% 0.000in /  0mm 715.00 W/m2
15:39 95.0 °F /  35 °C 74.0 °F /  23.3 °C 30.0in /  1015.8hPa West 3mph /  4.8km/h 5mph /  8km/h 52% 0.000in /  0mm 724.00 W/m2
15:44 95.0 °F /  35 °C 75.0 °F /  23.9 °C 30.0in /  1015.8hPa WSW 2mph /  3.2km/h 2mph /  3.2km/h 53% 0.000in /  0mm 728.00 W/m2
15:49 95.0 °F /  35 °C 75.0 °F /  23.9 °C 30.0in /  1015.8hPa SW 3mph /  4.8km/h 5mph /  8km/h 53% 0.000in /  0mm 682.00 W/m2
15:54 96.0 °F /  35.6 °C 74.0 °F /  23.3 °C 30.0in /  1015.8hPa NNW 5mph /  8km/h 5mph /  8km/h 50% 0.000in /  0mm 649.00 W/m2
15:59 96.0 °F /  35.6 °C 74.0 °F /  23.3 °C 30.0in /  1015.8hPa North 6mph /  9.7km/h 6mph /  9.7km/h 49% 0.000in /  0mm 631.00 W/m2
16:04 96.0 °F /  35.6 °C 75.0 °F /  23.9 °C 30.0in /  1015.8hPa NNW 6mph /  9.7km/h 8mph /  12.9km/h 50% 0.000in /  0mm 617.00 W/m2
16:09 96.0 °F /  35.6 °C 74.0 °F /  23.3 °C 30.0in /  1015.8hPa NNW 4mph /  6.4km/h 4mph /  6.4km/h 49% 0.000in /  0mm 601.00 W/m2
16:14 95.0 °F /  35 °C 75.0 °F /  23.9 °C 30.0in /  1015.8hPa NW 3mph /  4.8km/h 4mph /  6.4km/h 52% 0.000in /  0mm 582.00 W/m2
16:19 95.0 °F /  35 °C 75.0 °F /  23.9 °C 30.0in /  1015.8hPa West 4mph /  6.4km/h 4mph /  6.4km/h 53% 0.000in /  0mm 577.00 W/m2
16:24 95.0 °F /  35 °C 75.0 °F /  23.9 °C 30.0in /  1015.8hPa WNW 6mph /  9.7km/h 8mph /  12.9km/h 53% 0.000in /  0mm 552.00 W/m2
16:29 96.0 °F /  35.6 °C 75.0 °F /  23.9 °C 30.0in /  1015.8hPa NNW 8mph /  12.9km/h 8mph /  12.9km/h 51% 0.000in /  0mm 541.00 W/m2
16:34 96.0 °F /  35.6 °C 75.0 °F /  23.9 °C 30.0in /  1015.8hPa North 6mph /  9.7km/h 6mph /  9.7km/h 51% 0.000in /  0mm 524.00 W/m2
16:39 95.0 °F /  35 °C 74.0 °F /  23.3 °C 30.0in /  1015.8hPa NNW 8mph /  12.9km/h 8mph /  12.9km/h 50% 0.000in /  0mm 520.00 W/m2
16:44 95.0 °F /  35 °C 74.0 °F /  23.3 °C 30.0in /  1015.8hPa North 5mph /  8km/h 8mph /  12.9km/h 50% 0.000in /  0mm 504.00 W/m2
16:49 96.0 °F /  35.6 °C 74.0 °F /  23.3 °C 30.0in /  1015.8hPa North 4mph /  6.4km/h 5mph /  8km/h 50% 0.000in /  0mm 464.00 W/m2
16:54 95.0 °F /  35 °C 74.0 °F /  23.3 °C 30.0in /  1015.8hPa NNE 4mph /  6.4km/h 5mph /  8km/h 51% 0.000in /  0mm 441.00 W/m2
16:59 95.0 °F /  35 °C 75.0 °F /  23.9 °C 30.0in /  1015.8hPa WNW 4mph /  6.4km/h 4mph /  6.4km/h 52% 0.000in /  0mm 434.00 W/m2
17:04 95.0 °F /  35 °C 75.0 °F /  23.9 °C 30.0in /  1015.8hPa West 7mph /  11.3km/h 7mph /  11.3km/h 52% 0.000in /  0mm 408.00 W/m2
17:09 95.0 °F /  35 °C 74.0 °F /  23.3 °C 30.0in /  1015.8hPa West 6mph /  9.7km/h 6mph /  9.7km/h 52% 0.000in /  0mm 390.00 W/m2
17:14 95.0 °F /  35 °C 74.0 °F /  23.3 °C 30.0in /  1015.8hPa WNW 4mph /  6.4km/h 6mph /  9.7km/h 51% 0.000in /  0mm 374.00 W/m2
17:19 95.0 °F /  35 °C 75.0 °F /  23.9 °C 30.0in /  1015.8hPa West 3mph /  4.8km/h 3mph /  4.8km/h 52% 0.000in /  0mm 357.00 W/m2
17:24 95.0 °F /  35 °C 75.0 °F /  23.9 °C 30.0in /  1015.8hPa WSW 7mph /  11.3km/h 8mph /  12.9km/h 52% 0.000in /  0mm 339.00 W/m2
17:29 95.0 °F /  35 °C 74.0 °F /  23.3 °C 30.0in /  1015.8hPa NW 6mph /  9.7km/h 8mph /  12.9km/h 51% 0.000in /  0mm 316.00 W/m2
17:34 95.0 °F /  35 °C 74.0 °F /  23.3 °C 30.0in /  1015.8hPa WNW 3mph /  4.8km/h 4mph /  6.4km/h 51% 0.000in /  0mm 302.00 W/m2
17:39 95.0 °F /  35 °C 74.0 °F /  23.3 °C 30.0in /  1015.8hPa WSW 6mph /  9.7km/h 6mph /  9.7km/h 51% 0.000in /  0mm 274.00 W/m2
17:44 95.0 °F /  35 °C 74.0 °F /  23.3 °C 30.0in /  1015.8hPa NW 7mph /  11.3km/h 7mph /  11.3km/h 51% 0.000in /  0mm 272.00 W/m2
17:49 95.0 °F /  35 °C 74.0 °F /  23.3 °C 30.0in /  1015.8hPa NW 4mph /  6.4km/h 7mph /  11.3km/h 51% 0.000in /  0mm 244.00 W/m2
17:54 95.0 °F /  35 °C 74.0 °F /  23.3 °C 30.0in /  1015.8hPa NNW 3mph /  4.8km/h 6mph /  9.7km/h 52% 0.000in /  0mm 232.00 W/m2
17:59 95.0 °F /  35 °C 74.0 °F /  23.3 °C 30.0in /  1015.8hPa West 6mph /  9.7km/h 6mph /  9.7km/h 52% 0.000in /  0mm 216.00 W/m2
18:04 94.0 °F /  34.4 °C 73.0 °F /  22.8 °C 30.0in /  1015.8hPa WSW 6mph /  9.7km/h 6mph /  9.7km/h 52% 0.000in /  0mm 195.00 W/m2
18:09 94.0 °F /  34.4 °C 74.0 °F /  23.3 °C 30.0in /  1015.8hPa West 4mph /  6.4km/h 4mph /  6.4km/h 53% 0.000in /  0mm 88.00 W/m2
18:14 93.0 °F /  33.9 °C 74.0 °F /  23.3 °C 30.0in /  1015.8hPa WNW 4mph /  6.4km/h 4mph /  6.4km/h 53% 0.000in /  0mm 54.00 W/m2
18:19 93.0 °F /  33.9 °C 73.0 °F /  22.8 °C 30.0in /  1015.8hPa West 3mph /  4.8km/h 4mph /  6.4km/h 53% 0.000in /  0mm 37.00 W/m2
18:24 93.0 °F /  33.9 °C 73.0 °F /  22.8 °C 30.0in /  1015.8hPa WSW 3mph /  4.8km/h 4mph /  6.4km/h 54% 0.000in /  0mm 74.00 W/m2
18:29 92.0 °F /  33.3 °C 73.0 °F /  22.8 °C 30.0in /  1015.8hPa WSW 1mph /  1.6km/h 4mph /  6.4km/h 54% 0.000in /  0mm 37.00 W/m2
18:34 92.0 °F /  33.3 °C 73.0 °F /  22.8 °C 30.0in /  1015.8hPa WSW 2mph /  3.2km/h 2mph /  3.2km/h 54% 0.000in /  0mm 35.00 W/m2
18:39 92.0 °F /  33.3 °C 73.0 °F /  22.8 °C 30.0in /  1015.8hPa WSW 2mph /  3.2km/h 3mph /  4.8km/h 55% 0.000in /  0mm 23.00 W/m2
18:44 92.0 °F /  33.3 °C 74.0 °F /  23.3 °C 30.0in /  1015.8hPa WSW 2mph /  3.2km/h 2mph /  3.2km/h 56% 0.000in /  0mm 21.00 W/m2
18:49 92.0 °F /  33.3 °C 74.0 °F /  23.3 °C 30.0in /  1015.8hPa WSW 2mph /  3.2km/h 2mph /  3.2km/h 56% 0.000in /  0mm 30.00 W/m2
18:54 92.0 °F /  33.3 °C 74.0 °F /  23.3 °C 30.0in /  1015.8hPa WSW 3mph /  4.8km/h 3mph /  4.8km/h 57% 0.000in /  0mm 35.00 W/m2
18:59 92.0 °F /  33.3 °C 74.0 °F /  23.3 °C 30.0in /  1015.8hPa WSW 2mph /  3.2km/h 3mph /  4.8km/h 57% 0.000in /  0mm 35.00 W/m2
19:04 92.0 °F /  33.3 °C 74.0 °F /  23.3 °C 30.0in /  1015.8hPa WSW 2mph /  3.2km/h 2mph /  3.2km/h 57% 0.000in /  0mm 28.00 W/m2
19:09 91.0 °F /  32.8 °C 74.0 °F /  23.3 °C 30.0in /  1015.8hPa WSW 2mph /  3.2km/h 2mph /  3.2km/h 57% 0.000in /  0mm 26.00 W/m2
19:14 91.0 °F /  32.8 °C 74.0 °F /  23.3 °C 30.0in /  1015.8hPa WSW 2mph /  3.2km/h 3mph /  4.8km/h 58% 0.000in /  0mm 12.00 W/m2
19:19 91.0 °F /  32.8 °C 74.0 °F /  23.3 °C 30.0in /  1015.8hPa NNW 8mph /  12.9km/h 8mph /  12.9km/h 58% 0.000in /  0mm 5.00 W/m2
19:24 91.0 °F /  32.8 °C 75.0 °F /  23.9 °C 30.0in /  1015.8hPa North 14mph /  22.5km/h 15mph /  24.1km/h 61% 0.000in /  0mm 0.00 W/m2
19:29 90.0 °F /  32.2 °C 75.0 °F /  23.9 °C 30.0in /  1015.8hPa NNE 16mph /  25.7km/h 18mph /  29km/h 62% 0.000in /  0mm 0.00 W/m2
19:34 89.0 °F /  31.7 °C 74.0 °F /  23.3 °C 30.1in /  1019.2hPa NNE 12mph /  19.3km/h 13mph /  20.9km/h 63% 0.000in /  0mm 0.00 W/m2
19:39 88.0 °F /  31.1 °C 74.0 °F /  23.3 °C 30.1in /  1019.2hPa NNE 14mph /  22.5km/h 14mph /  22.5km/h 65% 0.000in /  0mm 0.00 W/m2
19:44 87.0 °F /  30.6 °C 74.0 °F /  23.3 °C 30.1in /  1019.2hPa NNE 7mph /  11.3km/h 7mph /  11.3km/h 67% 0.000in /  0mm 0.00 W/m2
19:49 86.0 °F /  30 °C 74.0 °F /  23.3 °C 30.1in /  1019.2hPa NNE 11mph /  17.7km/h 11mph /  17.7km/h 69% 0.000in /  0mm 0.00 W/m2
19:54 85.0 °F /  29.4 °C 74.0 °F /  23.3 °C 30.1in /  1019.2hPa NE 7mph /  11.3km/h 7mph /  11.3km/h 69% 0.000in /  0mm 0.00 W/m2
19:59 85.0 °F /  29.4 °C 74.0 °F /  23.3 °C 30.1in /  1019.2hPa ENE 4mph /  6.4km/h 4mph /  6.4km/h 70% 0.000in /  0mm 0.00 W/m2
20:04 84.0 °F /  28.9 °C 73.0 °F /  22.8 °C 30.1in /  1019.2hPa ENE 3mph /  4.8km/h 6mph /  9.7km/h 71% 0.000in /  0mm 0.00 W/m2
20:09 84.0 °F /  28.9 °C 73.0 °F /  22.8 °C 30.1in /  1019.2hPa East 3mph /  4.8km/h 3mph /  4.8km/h 71% 0.000in /  0mm 0.00 W/m2
20:14 83.0 °F /  28.3 °C 73.0 °F /  22.8 °C 30.1in /  1019.2hPa ENE 2mph /  3.2km/h 3mph /  4.8km/h 72% 0.000in /  0mm 0.00 W/m2
20:19 83.0 °F /  28.3 °C 73.0 °F /  22.8 °C 30.1in /  1019.2hPa ENE 2mph /  3.2km/h 2mph /  3.2km/h 72% 0.000in /  0mm 0.00 W/m2
20:24 83.0 °F /  28.3 °C 73.0 °F /  22.8 °C 30.1in /  1019.2hPa ENE 1mph /  1.6km/h 2mph /  3.2km/h 73% 0.000in /  0mm 0.00 W/m2
20:29 83.0 °F /  28.3 °C 73.0 °F /  22.8 °C 30.1in /  1019.2hPa ENE 1mph /  1.6km/h 1mph /  1.6km/h 73% 0.000in /  0mm 0.00 W/m2
20:34 83.0 °F /  28.3 °C 73.0 °F /  22.8 °C 30.1in /  1019.2hPa ENE 2mph /  3.2km/h 2mph /  3.2km/h 73% 0.000in /  0mm 0.00 W/m2
20:39 83.0 °F /  28.3 °C 73.0 °F /  22.8 °C 30.1in /  1019.2hPa ENE 1mph /  1.6km/h 2mph /  3.2km/h 73% 0.000in /  0mm 0.00 W/m2
20:44 82.0 °F /  27.8 °C 73.0 °F /  22.8 °C 30.1in /  1019.2hPa ENE 1mph /  1.6km/h 1mph /  1.6km/h 73% 0.000in /  0mm 0.00 W/m2
20:49 82.0 °F /  27.8 °C 73.0 °F /  22.8 °C 30.1in /  1019.2hPa ENE 1mph /  1.6km/h 1mph /  1.6km/h 73% 0.000in /  0mm 0.00 W/m2
20:54 83.0 °F /  28.3 °C 73.0 °F /  22.8 °C 30.1in /  1019.2hPa NE 3mph /  4.8km/h 4mph /  6.4km/h 74% 0.000in /  0mm 0.00 W/m2
20:59 84.0 °F /  28.9 °C 73.0 °F /  22.8 °C 30.1in /  1019.2hPa NNW 9mph /  14.5km/h 9mph /  14.5km/h 73% 0.000in /  0mm 0.00 W/m2
21:04 84.0 °F /  28.9 °C 73.0 °F /  22.8 °C 30.1in /  1019.2hPa NNW 6mph /  9.7km/h 8mph /  12.9km/h 69% 0.000in /  0mm 0.00 W/m2
21:09 85.0 °F /  29.4 °C 72.0 °F /  22.2 °C 30.1in /  1019.2hPa NNW 5mph /  8km/h 8mph /  12.9km/h 67% 0.000in /  0mm 0.00 W/m2
21:14 85.0 °F /  29.4 °C 72.0 °F /  22.2 °C 30.1in /  1019.2hPa NNW 5mph /  8km/h 6mph /  9.7km/h 66% 0.000in /  0mm 0.00 W/m2
21:19 85.0 °F /  29.4 °C 72.0 °F /  22.2 °C 30.1in /  1019.2hPa NNW 4mph /  6.4km/h 5mph /  8km/h 66% 0.000in /  0mm 0.00 W/m2
21:24 85.0 °F /  29.4 °C 71.0 °F /  21.7 °C 30.1in /  1019.2hPa NNW 8mph /  12.9km/h 8mph /  12.9km/h 65% 0.000in /  0mm 0.00 W/m2
21:29 85.0 °F /  29.4 °C 72.0 °F /  22.2 °C 30.1in /  1019.2hPa NNW 12mph /  19.3km/h 12mph /  19.3km/h 65% 0.000in /  0mm 0.00 W/m2
21:34 85.0 °F /  29.4 °C 71.0 °F /  21.7 °C 30.1in /  1019.2hPa NNW 11mph /  17.7km/h 13mph /  20.9km/h 64% 0.000in /  0mm 0.00 W/m2
21:39 85.0 °F /  29.4 °C 71.0 °F /  21.7 °C 30.1in /  1019.2hPa NNW 9mph /  14.5km/h 13mph /  20.9km/h 64% 0.000in /  0mm 0.00 W/m2
21:44 84.0 °F /  28.9 °C 71.0 °F /  21.7 °C 30.1in /  1019.2hPa NNW 10mph /  16.1km/h 10mph /  16.1km/h 65% 0.000in /  0mm 0.00 W/m2
21:49 84.0 °F /  28.9 °C 71.0 °F /  21.7 °C 30.1in /  1019.2hPa NNW 9mph /  14.5km/h 10mph /  16.1km/h 65% 0.000in /  0mm 0.00 W/m2
21:54 84.0 °F /  28.9 °C 71.0 °F /  21.7 °C 30.1in /  1019.2hPa NNW 7mph /  11.3km/h 10mph /  16.1km/h 65% 0.000in /  0mm 0.00 W/m2
21:59 84.0 °F /  28.9 °C 71.0 °F /  21.7 °C 30.1in /  1019.2hPa North 14mph /  22.5km/h 14mph /  22.5km/h 65% 0.000in /  0mm 0.00 W/m2
22:04 84.0 °F /  28.9 °C 71.0 °F /  21.7 °C 30.1in /  1019.2hPa North 12mph /  19.3km/h 13mph /  20.9km/h 65% 0.000in /  0mm 0.00 W/m2
22:09 84.0 °F /  28.9 °C 71.0 °F /  21.7 °C 30.1in /  1019.2hPa North 15mph /  24.1km/h 15mph /  24.1km/h 65% 0.000in /  0mm 0.00 W/m2
22:14 84.0 °F /  28.9 °C 70.0 °F /  21.1 °C 30.1in /  1019.2hPa North 11mph /  17.7km/h 15mph /  24.1km/h 64% 0.000in /  0mm 0.00 W/m2
22:19 84.0 °F /  28.9 °C 70.0 °F /  21.1 °C 30.1in /  1019.2hPa NNW 13mph /  20.9km/h 13mph /  20.9km/h 64% 0.000in /  0mm 0.00 W/m2
22:24 84.0 °F /  28.9 °C 70.0 °F /  21.1 °C 30.1in /  1019.2hPa NNW 12mph /  19.3km/h 13mph /  20.9km/h 64% 0.000in /  0mm 0.00 W/m2
22:29 84.0 °F /  28.9 °C 70.0 °F /  21.1 °C 30.1in /  1019.2hPa NNW 13mph /  20.9km/h 14mph /  22.5km/h 64% 0.000in /  0mm 0.00 W/m2
22:34 84.0 °F /  28.9 °C 70.0 °F /  21.1 °C 30.1in /  1019.2hPa North 13mph /  20.9km/h 15mph /  24.1km/h 64% 0.000in /  0mm 0.00 W/m2
22:39 83.0 °F /  28.3 °C 70.0 °F /  21.1 °C 30.1in /  1019.2hPa North 10mph /  16.1km/h 12mph /  19.3km/h 64% 0.000in /  0mm 0.00 W/m2
22:44 83.0 °F /  28.3 °C 69.0 °F /  20.6 °C 30.1in /  1019.2hPa North 10mph /  16.1km/h 11mph /  17.7km/h 64% 0.000in /  0mm 0.00 W/m2
22:49 83.0 °F /  28.3 °C 70.0 °F /  21.1 °C 30.1in /  1019.2hPa North 18mph /  29km/h 18mph /  29km/h 65% 0.000in /  0mm 0.00 W/m2
22:54 83.0 °F /  28.3 °C 69.0 °F /  20.6 °C 30.1in /  1019.2hPa North 16mph /  25.7km/h 18mph /  29km/h 64% 0.000in /  0mm 0.00 W/m2
22:59 83.0 °F /  28.3 °C 69.0 °F /  20.6 °C 30.1in /  1019.2hPa North 16mph /  25.7km/h 18mph /  29km/h 64% 0.000in /  0mm 0.00 W/m2
23:04 83.0 °F /  28.3 °C 69.0 °F /  20.6 °C 30.1in /  1019.2hPa North 17mph /  27.4km/h 17mph /  27.4km/h 64% 0.000in /  0mm 0.00 W/m2
23:09 83.0 °F /  28.3 °C 69.0 °F /  20.6 °C 30.1in /  1019.2hPa North 10mph /  16.1km/h 17mph /  27.4km/h 64% 0.000in /  0mm 0.00 W/m2
23:14 83.0 °F /  28.3 °C 69.0 °F /  20.6 °C 30.1in /  1019.2hPa North 12mph /  19.3km/h 16mph /  25.7km/h 64% 0.000in /  0mm 0.00 W/m2
23:19 82.0 °F /  27.8 °C 69.0 °F /  20.6 °C 30.1in /  1019.2hPa North 13mph /  20.9km/h 16mph /  25.7km/h 65% 0.000in /  0mm 0.00 W/m2
23:24 82.0 °F /  27.8 °C 69.0 °F /  20.6 °C 30.2in /  1022.6hPa North 13mph /  20.9km/h 17mph /  27.4km/h 65% 0.000in /  0mm 0.00 W/m2
23:29 82.0 °F /  27.8 °C 69.0 °F /  20.6 °C 30.2in /  1022.6hPa North 14mph /  22.5km/h 14mph /  22.5km/h 64% 0.000in /  0mm 0.00 W/m2
23:34 82.0 °F /  27.8 °C 69.0 °F /  20.6 °C 30.2in /  1022.6hPa North 14mph /  22.5km/h 16mph /  25.7km/h 64% 0.000in /  0mm 0.00 W/m2
23:39 82.0 °F /  27.8 °C 69.0 °F /  20.6 °C 30.2in /  1022.6hPa North 12mph /  19.3km/h 14mph /  22.5km/h 64% 0.000in /  0mm 0.00 W/m2
23:44 82.0 °F /  27.8 °C 69.0 °F /  20.6 °C 30.2in /  1022.6hPa NNE 13mph /  20.9km/h 13mph /  20.9km/h 64% 0.000in /  0mm 0.00 W/m2
23:49 82.0 °F /  27.8 °C 68.0 °F /  20 °C 30.2in /  1022.6hPa North 15mph /  24.1km/h 16mph /  25.7km/h 64% 0.000in /  0mm 0.00 W/m2
23:54 82.0 °F /  27.8 °C 68.0 °F /  20 °C 30.1in /  1019.2hPa North 13mph /  20.9km/h 13mph /  20.9km/h 64% 0.000in /  0mm 0.00 W/m2
23:59 81.0 °F /  27.2 °C 68.0 °F /  20 °C 30.1in /  1019.2hPa North 13mph /  20.9km/h 14mph /  22.5km/h 64% 0.000in /  0mm 0.00 W/m2
Villages of Bridgestone, Spring, TX USA
Compliments of Weather Underground - 4 mb